Station: Casino  

  Atmospheric Gas Attenuation - ITU Rec 676-11   ----------------- dB/100km -----------------
Date Time Temp RH % AH g/m3 Dew Point Wind Direction Speed kph Gust kph Barometer mB Rainfall Since 9am 24GHz 47GHz 76GHz 122GHz 134GHz 241GHz
08/05 12:30 20.3 24 4.22 -0.9 13 20 1018.5 0 10.1 18.2 22.1 57.1 42.0 141.1
08/05 12:20 20 22 3.8 -2.3 9 13 1018.7 0 9.3 17.8 20.9 53.8 37.8 126.5
08/05 12:10 19.6 25 4.22 -0.9 13 20 1018.8 0 10.1 18.4 22.3 57.6 42.3 142.3
08/05 12:00 19.5 23 3.86 -2.2 13 20 1019 0 9.4 18.0 21.2 54.7 38.7 129.4
08/05 11:50 19.3 23 3.81 -2.3 13 17 1019.2 0 9.3 17.9 21.1 54.4 38.3 128.0
08/05 11:40 18.7 27 4.32 -0.7 4 6 1019.4 0 10.4 18.7 22.8 59.1 43.9 147.6
08/05 11:30 18.4 25 3.93 -2 11 19 1019.7 0 9.6 18.3 21.7 56.0 40.0 133.8
08/05 11:20 18.4 24 3.77 -2.5 9 11 1019.8 0 9.2 18.1 21.2 54.7 38.3 128.0
08/05 11:10 18.4 25 3.93 -2 6 6 1020 0 9.6 18.3 21.7 56.0 40.0 133.8
08/05 11:00 18.2 27 4.2 -1.1 9 15 1020.4 0 10.1 18.7 22.6 58.5 42.9 144.1
08/05 10:50 17.5 25 3.73 -2.7 11 13 1020.4 0 9.2 18.2 21.3 55.0 38.3 127.9
08/05 10:40 17.5 27 4.03 -1.7 7 11 1020.6 0 9.8 18.6 22.3 57.6 41.5 139.0
08/05 10:30 17.1 30 4.37 -0.6 7 11 1020.8 0 10.5 19.1 23.5 60.8 45.3 152.5
08/05 10:20 17.5 28 4.17 -1.2 11 13 1020.9 0 10.1 18.8 22.7 58.8 43.0 144.3
08/05 10:10 17 31 4.49 -0.2 7 9 1020.9 0 10.8 19.3 23.9 61.9 46.7 157.3
08/05 10:00 16.8 32 4.57 0 11 17 1020.9 0 10.9 19.5 24.2 62.8 47.7 160.7
08/05 09:50 16.1 34 4.66 0.3 13 17 1021 0 11.2 19.7 24.7 64.1 49.1 165.6
08/05 09:40 16 39 5.31 2.1 11 13 1021.2 0 12.5 20.7 27.0 70.1 56.4 191.4
08/05 09:30 15.5 38 5.02 1.3 11 20 1021.1 0 11.9 20.4 26.1 67.8 53.5 181.0
08/05 09:20 15.5 42 5.55 2.7 11 15 1021.2 0 13.0 21.1 28.0 72.8 59.5 202.3
08/05 09:10 15.2 42 5.45 2.4 13 15 1021.1 0 12.8 21.0 27.7 72.1 58.6 199.0
08/05 09:00 14.8 43 5.45 2.4 13 19 1021 0 12.9 21.1 27.9 72.4 58.9 199.9
08/05 08:50 14.5 43 5.35 2.1 13 15 1021.1 0 12.7 21.1 27.6 71.8 57.9 196.6
08/05 08:40 14.3 45 5.53 2.5 15 20 1021.1 0 13.0 21.4 28.3 73.6 60.2 204.5
08/05 08:30 13.9 50 5.99 3.7 13 20 1021 0 14.0 22.1 30.1 78.4 65.9 224.6
08/05 08:20 13.4 51 5.93 3.5 11 13 1021.1 0 13.9 22.2 30.1 78.3 65.6 223.5
08/05 08:10 12.7 52 5.79 3.1 11 15 1021 0 13.7 22.1 29.8 77.6 64.5 219.5
08/05 08:00 12.6 56 6.2 4.1 9 15 1021 0 14.5 22.7 31.4 81.8 69.6 237.3
08/05 07:50 11.3 67 6.84 5.4 4 6 1021 0 15.9 24.1 34.3 89.7 78.9 269.7
08/05 07:40 10.9 70 6.96 5.7 2 6 1021 0 16.2 24.4 35.0 91.4 80.8 276.5
08/05 07:30 9.8 69 6.4 4.4 2 7 1021 0 15.1 23.8 33.2 86.8 74.7 254.8
08/05 07:20 9.5 71 6.46 4.5 0 0 1020.9 0 15.2 23.9 33.6 87.7 75.7 258.5
08/05 07:10 8.3 95 8.01 7.5 0 0 1020.9 0 18.6 26.8 40.5 106.2 98.0 336.3
08/05 07:00 6.3 98 7.26 6 0 0 1020.8 0 17.1 26.2 38.3 100.3 89.9 307.8
08/05 06:50 4.6 96 6.36 4 0 0 1020.7 0 15.2 25.1 35.3 92.2 79.3 270.2
08/05 06:40 4.3 96 6.23 3.7 0 0 1020.6 0 14.9 25.0 34.9 91.1 77.8 264.9
08/05 06:30 3.6 95 5.89 2.9 0 0 1020.5 0 14.2 24.6 33.8 88.1 73.8 250.8
08/05 06:20 3.7 94 5.86 2.8 0 0 1020.4 0 14.1 24.5 33.6 87.7 73.3 249.0
08/05 06:10 3.7 93 5.8 2.7 0 0 1020.4 0 14.0 24.4 33.3 87.0 72.5 246.1
08/05 06:00 4 93 5.92 3 0 0 1020.3 0 14.3 24.5 33.7 88.0 73.8 250.9
08/05 05:50 3.8 92 5.78 2.6 0 0 1020.2 0 14.0 24.4 33.2 86.7 72.1 244.8
08/05 05:40 4 94 5.98 3.1 0 0 1019.9 0 14.4 24.6 33.9 88.6 74.6 253.7
08/05 05:30 3.4 91 5.56 2.1 0 0 1019.8 0 13.5 24.1 32.5 84.6 69.4 235.5
08/05 05:20 4.1 88 5.64 2.3 0 0 1019.7 0 13.6 24.0 32.5 84.8 69.9 237.2
08/05 05:10 4.9 88 5.94 3.1 6 7 1019.6 0 14.3 24.3 33.4 87.1 73.2 248.9
08/05 05:00 5 81 5.51 2 6 7 1019.7 0 13.3 23.6 31.6 82.4 67.4 228.4
08/05 04:50 7 81 6.28 4 7 9 1019.5 0 14.9 24.3 33.9 88.5 75.7 258.0
08/05 04:40 5.8 86 6.16 3.6 7 7 1019.4 0 14.7 24.4 33.9 88.5 75.3 256.3
08/05 04:30 5.3 86 5.96 3.2 4 7 1019.4 0 14.3 24.2 33.3 86.9 73.1 248.5
08/05 04:20 6 85 6.17 3.7 4 6 1019.3 0 14.7 24.4 33.8 88.4 75.2 256.1
08/05 04:10 6.4 85 6.34 4.1 7 9 1019.4 0 15.1 24.5 34.4 89.8 77.1 262.8
08/05 04:00 5.9 86 6.2 3.7 7 11 1019.4 0 14.8 24.4 34.0 88.8 75.7 257.9
08/05 03:50 7 86 6.67 4.8 7 9 1019.3 0 15.7 24.9 35.5 92.7 80.9 276.3
08/05 03:40 6.8 93 7.12 5.7 7 9 1019.3 0 16.7 25.7 37.4 97.9 87.3 298.6
08/05 03:30 5.3 90 6.24 3.8 6 7 1019.3 0 14.9 24.7 34.4 89.9 76.8 261.7
08/05 03:20 5.8 90 6.45 4.3 7 9 1019.2 0 15.3 24.9 35.1 91.7 79.2 270.0
08/05 03:10 6.5 91 6.83 5.1 6 7 1019.1 0 16.1 25.3 36.3 95.0 83.6 285.7
08/05 03:00 6.8 90 6.89 5.3 7 9 1019.1 0 16.2 25.3 36.4 95.3 84.1 287.5
08/05 02:50 7.1 88 6.87 5.3 7 7 1019.2 0 16.2 25.2 36.2 94.8 83.5 285.5
08/05 02:40 7.7 90 7.3 6.2 7 7 1018.9 0 17.1 25.7 37.7 98.7 88.7 303.7
08/05 02:30 8.1 86 7.16 5.9 6 7 1018.9 0 16.8 25.4 36.9 96.7 86.4 295.5
08/05 02:20 8.3 86 7.25 6.1 6 6 1018.8 0 16.9 25.5 37.2 97.4 87.3 299.0
08/05 02:10 8.3 87 7.34 6.3 6 6 1018.9 0 17.1 25.6 37.6 98.4 88.6 303.3
08/05 02:00 7.6 87 7.01 5.6 0 2 1018.8 0 16.5 25.3 36.6 95.7 84.9 290.2
08/05 01:50 8.2 87 7.29 6.2 4 6 1018.8 0 17.0 25.6 37.4 98.0 88.0 301.3
08/05 01:40 8.7 84 7.27 6.2 6 7 1018.9 0 17.0 25.4 37.1 97.2 87.2 298.4
08/05 01:30 9 82 7.23 6.1 7 9 1018.7 0 16.9 25.2 36.8 96.3 86.3 295.4
08/05 01:20 8.9 75 6.57 4.7 9 9 1018.9 0 15.5 24.2 34.2 89.4 77.6 265.0
08/05 01:10 11.2 65 6.59 4.9 4 6 1018.6 0 15.4 23.6 33.3 87.0 75.6 258.3
08/05 01:00 11.9 59 6.25 4.2 7 13 1018.7 0 14.7 22.9 31.7 82.8 70.7 241.1
08/05 00:50 11.8 63 6.63 5 9 13 1018.6 0 15.5 23.5 33.2 86.7 75.6 258.1
08/05 00:40 12.2 65 7.01 5.8 11 13 1018.5 0 16.3 24.0 34.5 90.2 80.0 273.7
08/05 00:20 11 76 7.61 6.9 9 9 1018.5 0 17.6 25.3 37.4 98.0 89.1 305.4
08/05 00:10 10.1 83 7.85 7.3 0 0 1018.7 0 18.2 26.0 38.8 101.7 93.4 320.4
08/05 00:00 10 80 7.52 6.7 0 0 1018.7 0 17.4 25.4 37.5 98.3 89.0 305.2
07/05 23:50 10.8 78 7.71 7.1 0 0 1018.6 0 17.8 25.5 37.9 99.3 90.7 310.9
07/05 23:40 10.7 78 7.66 7 6 7 1018.7 0 17.7 25.5 37.8 98.9 90.1 309.0
07/05 23:30 11.1 76 7.66 7 0 0 1018.4 0 17.7 25.3 37.6 98.4 89.6 307.4
07/05 23:20 11.5 71 7.33 6.4 0 0 1018.4 0 17.0 24.7 36.1 94.4 84.8 290.6
07/05 23:10 13.3 63 7.28 6.4 0 0 1018.3 0 16.8 24.1 35.1 91.7 82.3 281.8
07/05 23:00 13.3 62 7.16 6.2 7 11 1018.3 0 16.5 23.9 34.6 90.5 80.7 276.5
07/05 22:50 14.2 58 7.08 6.1 6 7 1018 0 16.3 23.6 33.9 88.6 78.8 269.8
07/05 22:40 14.8 58 7.35 6.6 9 11 1017.8 0 16.9 23.8 34.7 90.7 81.5 279.5
07/05 22:30 14.9 55 7.01 6 7 13 1017.9 0 16.2 23.3 33.3 87.1 77.2 264.5
07/05 22:20 15 56 7.18 6.3 9 9 1017.5 0 16.5 23.5 33.9 88.7 79.2 271.4
07/05 22:10 15.5 55 7.27 6.5 7 7 1017.7 0 16.7 23.5 34.1 89.1 79.8 273.6
07/05 22:00 15.5 53 7.01 6 9 13 1017.5 0 16.1 23.1 33.1 86.5 76.6 262.4
07/05 21:50 15.8 54 7.27 6.5 9 13 1017.5 0 16.7 23.4 33.9 88.7 79.5 272.5
07/05 21:40 16.6 49 6.92 5.9 7 9 1017.6 0 15.9 22.7 32.3 84.4 74.5 255.1
07/05 21:30 16.7 48 6.82 5.6 11 17 1017.3 0 15.7 22.5 31.9 83.3 73.2 250.5
07/05 21:20 16.9 47 6.76 5.5 9 11 1017.2 0 15.5 22.4 31.6 82.5 72.3 247.4
07/05 21:10 16.9 46 6.62 5.2 11 13 1017.2 0 15.3 22.2 31.1 81.2 70.6 241.6
07/05 21:00 17.1 45 6.55 5.1 11 17 1017.2 0 15.1 22.0 30.8 80.3 69.6 238.1
07/05 20:50 17 45 6.51 5 11 15 1016.9 0 15.0 22.0 30.7 80.0 69.2 236.7
07/05 20:40 16.8 46 6.58 5.1 11 15 1016.6 0 15.2 22.1 31.0 80.9 70.2 240.1
07/05 20:30 16.8 45 6.43 4.8 9 15 1016.4 0 14.9 21.9 30.4 79.4 68.5 233.9
07/05 20:20 16.9 43 6.18 4.3 7 9 1016.3 0 14.3 21.5 29.5 77.0 65.5 223.3
07/05 20:10 17.4 42 6.22 4.4 6 7 1016.1 0 14.4 21.5 29.5 76.8 65.5 223.5
07/05 20:00 17.6 42 6.3 4.6 9 15 1015.9 0 14.6 21.5 29.7 77.4 66.2 226.2
07/05 19:50 18.1 40 6.18 4.3 9 13 1015.7 0 14.3 21.2 29.1 75.8 64.4 220.0

Last Refresh: 08-May-2026 12:07:15

Bureau of Meteorology